Tyre, New York
Current Conditions -  °F | °C
As of 4:53 PM on Tuesday 25 Nov 2014 (Local Time) from KPEO Reporting Station
Few Clouds Few Clouds  
Wind Chill: 40°   Ceiling: Unl
Heat Index: 44°   Visibility: 10mi
Dew Point: 26°   Wind: 7mph
Humidity: 49%   Direction: 280°W
Pressure: 29.99"   Gusts: NA
Location:  42.9691°N, 76.7961°W
Report Text: KPEO 252153Z AUTO 28006KT 10SM FEW060 07/M03 A2999 RMK AO2 SLP161 T00671033
Loading
Personal Weather Stations






























Interactive Weather Map New forecast layout! Learn more

10-Day Weather Forecast

Advertisements
Track Severe Weather on mobile